sensor_id;sensor_type;location;lat;lon;timestamp;pressure;altitude;pressure_sealevel;temperature;humidity
24762;BME280;12865;51.934;10.330;2023-03-03T00:00:03;99847.94;;;-0.22;100.00
24762;BME280;12865;51.934;10.330;2023-03-03T00:02:49;99842.84;;;-0.27;100.00
24762;BME280;12865;51.934;10.330;2023-03-03T00:05:35;99843.66;;;-0.25;100.00
24762;BME280;12865;51.934;10.330;2023-03-03T00:08:21;99849.19;;;-0.09;100.00
24762;BME280;12865;51.934;10.330;2023-03-03T00:11:08;99847.47;;;-0.10;100.00
24762;BME280;12865;51.934;10.330;2023-03-03T00:13:55;99848.09;;;-0.04;100.00
24762;BME280;12865;51.934;10.330;2023-03-03T00:16:41;99847.81;;;0.04;100.00
24762;BME280;12865;51.934;10.330;2023-03-03T00:19:29;99850.06;;;-0.09;100.00
24762;BME280;12865;51.934;10.330;2023-03-03T00:22:30;99849.25;;;-0.11;100.00
24762;BME280;12865;51.934;10.330;2023-03-03T00:25:27;99844.25;;;-0.17;100.00
24762;BME280;12865;51.934;10.330;2023-03-03T00:28:28;99842.28;;;-0.12;100.00
24762;BME280;12865;51.934;10.330;2023-03-03T00:31:20;99845.84;;;0.09;100.00
24762;BME280;12865;51.934;10.330;2023-03-03T00:34:23;99837.28;;;-0.18;100.00
24762;BME280;12865;51.934;10.330;2023-03-03T00:37:31;99834.31;;;-0.32;100.00
24762;BME280;12865;51.934;10.330;2023-03-03T00:40:24;99829.19;;;-0.35;100.00
24762;BME280;12865;51.934;10.330;2023-03-03T00:43:20;99816.41;;;-0.43;100.00
24762;BME280;12865;51.934;10.330;2023-03-03T00:46:07;99820.09;;;-0.25;100.00
24762;BME280;12865;51.934;10.330;2023-03-03T00:48:54;99822.03;;;-0.30;100.00
24762;BME280;12865;51.934;10.330;2023-03-03T00:51:42;99820.59;;;-0.38;100.00
24762;BME280;12865;51.934;10.330;2023-03-03T00:54:28;99828.50;;;-0.40;100.00
24762;BME280;12865;51.934;10.330;2023-03-03T00:57:14;99821.97;;;-0.28;100.00
24762;BME280;12865;51.934;10.330;2023-03-03T00:59:59;99834.50;;;-0.36;100.00
24762;BME280;12865;51.934;10.330;2023-03-03T01:02:45;99831.94;;;-0.38;100.00
24762;BME280;12865;51.934;10.330;2023-03-03T01:05:33;99823.75;;;-0.29;100.00
24762;BME280;12865;51.934;10.330;2023-03-03T01:08:20;99824.41;;;-0.24;100.00
24762;BME280;12865;51.934;10.330;2023-03-03T01:11:13;99821.97;;;-0.28;100.00
24762;BME280;12865;51.934;10.330;2023-03-03T01:14:00;99822.94;;;-0.31;100.00
24762;BME280;12865;51.934;10.330;2023-03-03T01:16:46;99832.16;;;-0.21;100.00
24762;BME280;12865;51.934;10.330;2023-03-03T01:19:32;99832.28;;;-0.24;100.00
24762;BME280;12865;51.934;10.330;2023-03-03T01:22:18;99831.13;;;0.07;100.00
24762;BME280;12865;51.934;10.330;2023-03-03T01:25:04;99820.75;;;-0.20;100.00
24762;BME280;12865;51.934;10.330;2023-03-03T01:27:49;99832.84;;;-0.16;100.00
24762;BME280;12865;51.934;10.330;2023-03-03T01:30:35;99831.56;;;-0.06;100.00
24762;BME280;12865;51.934;10.330;2023-03-03T01:33:21;99836.09;;;-0.32;100.00
24762;BME280;12865;51.934;10.330;2023-03-03T01:36:06;99844.19;;;-0.15;100.00
24762;BME280;12865;51.934;10.330;2023-03-03T01:38:52;99840.66;;;-0.37;100.00
24762;BME280;12865;51.934;10.330;2023-03-03T01:41:38;99846.25;;;-0.48;100.00
24762;BME280;12865;51.934;10.330;2023-03-03T01:44:24;99853.84;;;-0.41;100.00
24762;BME280;12865;51.934;10.330;2023-03-03T01:47:10;99864.13;;;-0.59;100.00
24762;BME280;12865;51.934;10.330;2023-03-03T01:50:02;99866.59;;;-0.55;100.00
24762;BME280;12865;51.934;10.330;2023-03-03T01:52:49;99862.50;;;-0.38;100.00
24762;BME280;12865;51.934;10.330;2023-03-03T01:55:38;99863.00;;;-0.52;100.00
24762;BME280;12865;51.934;10.330;2023-03-03T01:58:27;99861.69;;;-0.41;100.00
24762;BME280;12865;51.934;10.330;2023-03-03T02:01:18;99851.81;;;-0.32;100.00
24762;BME280;12865;51.934;10.330;2023-03-03T02:04:04;99849.38;;;-0.37;100.00
24762;BME280;12865;51.934;10.330;2023-03-03T02:06:55;99847.53;;;-0.58;100.00
24762;BME280;12865;51.934;10.330;2023-03-03T02:09:53;99839.66;;;-0.58;100.00
24762;BME280;12865;51.934;10.330;2023-03-03T02:12:42;99848.09;;;-0.50;100.00
24762;BME280;12865;51.934;10.330;2023-03-03T02:15:31;99842.41;;;-0.38;100.00
24762;BME280;12865;51.934;10.330;2023-03-03T02:18:18;99840.88;;;-0.44;100.00
24762;BME280;12865;51.934;10.330;2023-03-03T02:24:06;99830.00;;;-0.33;100.00
24762;BME280;12865;51.934;10.330;2023-03-03T02:26:55;99836.00;;;-0.29;100.00
24762;BME280;12865;51.934;10.330;2023-03-03T02:29:40;99833.66;;;-0.37;100.00
24762;BME280;12865;51.934;10.330;2023-03-03T02:32:26;99846.25;;;-0.48;100.00
24762;BME280;12865;51.934;10.330;2023-03-03T02:43:59;99824.19;;;-0.41;100.00
24762;BME280;12865;51.934;10.330;2023-03-03T02:46:46;99840.13;;;-0.47;100.00
24762;BME280;12865;51.934;10.330;2023-03-03T02:49:34;99838.34;;;-0.47;100.00
24762;BME280;12865;51.934;10.330;2023-03-03T02:52:21;99847.53;;;-0.35;100.00
24762;BME280;12865;51.934;10.330;2023-03-03T02:55:07;99841.72;;;-0.43;100.00
24762;BME280;12865;51.934;10.330;2023-03-03T02:57:53;99834.50;;;-0.36;100.00
24762;BME280;12865;51.934;10.330;2023-03-03T03:00:39;99825.88;;;-0.40;100.00
24762;BME280;12865;51.934;10.330;2023-03-03T03:03:24;99831.66;;;-0.30;100.00
24762;BME280;12865;51.934;10.330;2023-03-03T03:06:10;99824.75;;;-0.33;100.00
24762;BME280;12865;51.934;10.330;2023-03-03T03:08:55;99812.06;;;-0.44;100.00
24762;BME280;12865;51.934;10.330;2023-03-03T03:11:41;99828.69;;;-0.45;100.00
24762;BME280;12865;51.934;10.330;2023-03-03T03:14:27;99820.44;;;-0.57;100.00
24762;BME280;12865;51.934;10.330;2023-03-03T03:17:13;99830.16;;;-0.61;100.00
24762;BME280;12865;51.934;10.330;2023-03-03T03:19:59;99816.91;;;-0.56;100.00
24762;BME280;12865;51.934;10.330;2023-03-03T03:22:44;99831.50;;;-0.74;100.00
24762;BME280;12865;51.934;10.330;2023-03-03T03:25:30;99827.06;;;-0.49;100.00
24762;BME280;12865;51.934;10.330;2023-03-03T03:28:16;99828.94;;;-0.75;100.00
24762;BME280;12865;51.934;10.330;2023-03-03T03:31:04;99835.28;;;-0.83;100.00
24762;BME280;12865;51.934;10.330;2023-03-03T03:33:50;99831.94;;;-0.86;100.00
24762;BME280;12865;51.934;10.330;2023-03-03T03:36:37;99844.03;;;-0.84;100.00
24762;BME280;12865;51.934;10.330;2023-03-03T03:39:24;99837.00;;;-0.82;100.00
24762;BME280;12865;51.934;10.330;2023-03-03T03:42:09;99843.00;;;-0.78;100.00
24762;BME280;12865;51.934;10.330;2023-03-03T03:44:55;99830.81;;;-0.79;100.00
24762;BME280;12865;51.934;10.330;2023-03-03T03:47:41;99838.72;;;-0.81;100.00
24762;BME280;12865;51.934;10.330;2023-03-03T03:50:27;99839.34;;;-0.74;100.00
24762;BME280;12865;51.934;10.330;2023-03-03T03:53:12;99846.38;;;-0.76;100.00
24762;BME280;12865;51.934;10.330;2023-03-03T03:55:58;99836.56;;;-0.69;100.00
24762;BME280;12865;51.934;10.330;2023-03-03T03:58:44;99836.63;;;-0.71;100.00
24762;BME280;12865;51.934;10.330;2023-03-03T04:01:30;99833.78;;;-0.65;100.00
24762;BME280;12865;51.934;10.330;2023-03-03T04:04:15;99838.13;;;-0.64;100.00
24762;BME280;12865;51.934;10.330;2023-03-03T04:07:01;99818.13;;;-0.66;100.00
24762;BME280;12865;51.934;10.330;2023-03-03T04:09:47;99813.94;;;-0.70;100.00
24762;BME280;12865;51.934;10.330;2023-03-03T04:12:33;99822.47;;;-0.65;100.00
24762;BME280;12865;51.934;10.330;2023-03-03T04:15:22;99829.41;;;-0.64;100.00
24762;BME280;12865;51.934;10.330;2023-03-03T04:18:08;99824.97;;;-0.62;100.00
24762;BME280;12865;51.934;10.330;2023-03-03T04:20:54;99820.44;;;-0.57;100.00
24762;BME280;12865;51.934;10.330;2023-03-03T04:23:40;99828.16;;;-0.54;100.00
24762;BME280;12865;51.934;10.330;2023-03-03T04:26:26;99823.72;;;-0.52;100.00
24762;BME280;12865;51.934;10.330;2023-03-03T04:29:11;99834.53;;;-0.61;100.00
24762;BME280;12865;51.934;10.330;2023-03-03T04:31:57;99847.34;;;-0.54;100.00
24762;BME280;12865;51.934;10.330;2023-03-03T04:34:43;99844.72;;;-0.54;100.00
24762;BME280;12865;51.934;10.330;2023-03-03T04:37:29;99847.38;;;-0.07;100.00
24762;BME280;12865;51.934;10.330;2023-03-03T04:40:14;99851.53;;;-0.25;100.00
24762;BME280;12865;51.934;10.330;2023-03-03T04:43:01;99857.53;;;-0.46;100.00
24762;BME280;12865;51.934;10.330;2023-03-03T04:45:47;99862.06;;;-0.50;100.00
24762;BME280;12865;51.934;10.330;2023-03-03T04:48:33;99869.41;;;-0.61;100.00
24762;BME280;12865;51.934;10.330;2023-03-03T04:51:18;99858.13;;;-0.63;100.00
24762;BME280;12865;51.934;10.330;2023-03-03T04:54:04;99864.88;;;-0.56;100.00
24762;BME280;12865;51.934;10.330;2023-03-03T04:56:50;99863.91;;;-0.53;100.00
24762;BME280;12865;51.934;10.330;2023-03-03T04:59:35;99870.97;;;-0.55;100.00
24762;BME280;12865;51.934;10.330;2023-03-03T05:02:21;99859.53;;;-0.53;100.00
24762;BME280;12865;51.934;10.330;2023-03-03T05:05:07;99856.88;;;-0.51;100.00
24762;BME280;12865;51.934;10.330;2023-03-03T05:07:55;99858.72;;;-0.30;100.00
24762;BME280;12865;51.934;10.330;2023-03-03T05:10:40;99862.09;;;-0.51;100.00
24762;BME280;12865;51.934;10.330;2023-03-03T05:13:26;99858.19;;;-0.40;100.00
24762;BME280;12865;51.934;10.330;2023-03-03T05:16:11;99849.47;;;-0.40;100.00
24762;BME280;12865;51.934;10.330;2023-03-03T05:18:57;99867.34;;;-0.51;100.00
24762;BME280;12865;51.934;10.330;2023-03-03T05:21:43;99868.47;;;-0.35;100.00
24762;BME280;12865;51.934;10.330;2023-03-03T05:24:29;99868.84;;;-0.44;100.00
24762;BME280;12865;51.934;10.330;2023-03-03T05:27:15;99874.94;;;-0.44;100.00
24762;BME280;12865;51.934;10.330;2023-03-03T05:30:01;99860.84;;;-0.41;100.00
24762;BME280;12865;51.934;10.330;2023-03-03T05:32:46;99865.09;;;-0.37;100.00
24762;BME280;12865;51.934;10.330;2023-03-03T05:35:33;99874.53;;;-0.33;100.00
24762;BME280;12865;51.934;10.330;2023-03-03T05:38:18;99870.53;;;-0.43;100.00
24762;BME280;12865;51.934;10.330;2023-03-03T05:41:04;99873.03;;;-0.40;100.00
24762;BME280;12865;51.934;10.330;2023-03-03T05:43:50;99871.41;;;-0.43;100.00
24762;BME280;12865;51.934;10.330;2023-03-03T05:46:35;99868.84;;;-0.44;100.00
24762;BME280;12865;51.934;10.330;2023-03-03T05:49:21;99870.59;;;-0.45;100.00
24762;BME280;12865;51.934;10.330;2023-03-03T05:52:06;99873.66;;;-0.33;100.00
24762;BME280;12865;51.934;10.330;2023-03-03T05:54:53;99856.13;;;-0.31;100.00
24762;BME280;12865;51.934;10.330;2023-03-03T05:57:39;99866.94;;;-0.41;100.00
24762;BME280;12865;51.934;10.330;2023-03-03T06:00:24;99853.84;;;-0.41;100.00
24762;BME280;12865;51.934;10.330;2023-03-03T06:03:10;99853.91;;;-0.42;100.00
24762;BME280;12865;51.934;10.330;2023-03-03T06:05:56;99848.84;;;-0.47;100.00
24762;BME280;12865;51.934;10.330;2023-03-03T06:08:42;99852.13;;;-0.42;100.00
24762;BME280;12865;51.934;10.330;2023-03-03T06:11:27;99852.03;;;-0.38;100.00
24762;BME280;12865;51.934;10.330;2023-03-03T06:14:13;99849.50;;;-0.42;100.00
24762;BME280;12865;51.934;10.330;2023-03-03T06:16:59;99857.44;;;-0.43;100.00
24762;BME280;12865;51.934;10.330;2023-03-03T06:19:44;99839.16;;;-0.45;100.00
24762;BME280;12865;51.934;10.330;2023-03-03T06:22:32;99842.63;;;-0.44;100.00
24762;BME280;12865;51.934;10.330;2023-03-03T06:25:17;99856.31;;;-0.36;100.00
24762;BME280;12865;51.934;10.330;2023-03-03T06:28:03;99852.88;;;-0.38;100.00
24762;BME280;12865;51.934;10.330;2023-03-03T06:30:52;99868.94;;;-0.47;100.00
24762;BME280;12865;51.934;10.330;2023-03-03T06:33:38;99877.94;;;-0.31;100.00
24762;BME280;12865;51.934;10.330;2023-03-03T06:36:24;99879.44;;;-0.01;100.00
24762;BME280;12865;51.934;10.330;2023-03-03T06:39:10;99898.44;;;-0.19;100.00
24762;BME280;12865;51.934;10.330;2023-03-03T06:41:55;99909.91;;;-0.21;100.00
24762;BME280;12865;51.934;10.330;2023-03-03T06:44:41;99916.84;;;-0.20;100.00
24762;BME280;12865;51.934;10.330;2023-03-03T06:47:26;99925.91;;;-0.29;100.00
24762;BME280;12865;51.934;10.330;2023-03-03T06:50:12;99925.84;;;-0.27;100.00
24762;BME280;12865;51.934;10.330;2023-03-03T06:53:15;99925.94;;;-0.55;100.00
24762;BME280;12865;51.934;10.330;2023-03-03T06:56:01;99926.06;;;-0.58;100.00
24762;BME280;12865;51.934;10.330;2023-03-03T06:58:47;99917.50;;;-0.38;100.00
24762;BME280;12865;51.934;10.330;2023-03-03T07:01:35;99919.38;;;-0.42;100.00
24762;BME280;12865;51.934;10.330;2023-03-03T07:07:21;99916.41;;;-0.56;100.00
24762;BME280;12865;51.934;10.330;2023-03-03T07:10:19;99916.84;;;-0.44;100.00
24762;BME280;12865;51.934;10.330;2023-03-03T07:13:21;99917.06;;;-0.50;100.00
24762;BME280;12865;51.934;10.330;2023-03-03T07:16:12;99911.88;;;-0.51;100.00
24762;BME280;12865;51.934;10.330;2023-03-03T07:19:00;99916.28;;;-0.53;100.00
24762;BME280;12865;51.934;10.330;2023-03-03T07:21:49;99924.41;;;-0.36;100.00
24762;BME280;12865;51.934;10.330;2023-03-03T07:24:36;99927.78;;;-0.32;100.00
24762;BME280;12865;51.934;10.330;2023-03-03T07:27:27;99928.16;;;-0.43;100.00
24762;BME280;12865;51.934;10.330;2023-03-03T07:30:39;99936.47;;;-0.32;100.00
24762;BME280;12865;51.934;10.330;2023-03-03T07:33:28;99933.31;;;-0.42;100.00
24762;BME280;12865;51.934;10.330;2023-03-03T07:36:29;99936.47;;;-0.32;100.00
24762;BME280;12865;51.934;10.330;2023-03-03T07:39:39;99939.91;;;-0.30;100.00
24762;BME280;12865;51.934;10.330;2023-03-03T07:42:34;99948.03;;;-0.37;100.00
24762;BME280;12865;51.934;10.330;2023-03-03T07:45:27;99948.63;;;-0.29;100.00
24762;BME280;12865;51.934;10.330;2023-03-03T07:51:11;99948.41;;;-0.23;100.00
24762;BME280;12865;51.934;10.330;2023-03-03T07:54:11;99947.66;;;-0.27;100.00
24762;BME280;12865;51.934;10.330;2023-03-03T08:00:01;99962.09;;;-0.15;100.00
24762;BME280;12865;51.934;10.330;2023-03-03T08:03:04;99966.78;;;-0.25;100.00
24762;BME280;12865;51.934;10.330;2023-03-03T08:05:50;99958.94;;;-0.25;100.00
24762;BME280;12865;51.934;10.330;2023-03-03T08:08:36;99951.88;;;-0.23;100.00
24762;BME280;12865;51.934;10.330;2023-03-03T08:11:21;99954.34;;;-0.18;100.00
24762;BME280;12865;51.934;10.330;2023-03-03T08:14:09;99962.03;;;-0.14;100.00
24762;BME280;12865;51.934;10.330;2023-03-03T08:16:57;99958.41;;;-0.10;100.00
24762;BME280;12865;51.934;10.330;2023-03-03T08:19:43;99963.50;;;-0.07;100.00
24762;BME280;12865;51.934;10.330;2023-03-03T08:22:32;99959.88;;;-0.03;100.00
24762;BME280;12865;51.934;10.330;2023-03-03T08:25:19;99966.66;;;0.03;100.00
24762;BME280;12865;51.934;10.330;2023-03-03T08:28:05;99960.16;;;-0.10;100.00
24762;BME280;12865;51.934;10.330;2023-03-03T08:30:51;99974.56;;;0.02;100.00
24762;BME280;12865;51.934;10.330;2023-03-03T08:33:38;99964.81;;;0.07;100.00
24762;BME280;12865;51.934;10.330;2023-03-03T08:36:23;99969.00;;;0.11;100.00
24762;BME280;12865;51.934;10.330;2023-03-03T08:39:09;99978.13;;;0.24;100.00
24762;BME280;12865;51.934;10.330;2023-03-03T08:41:54;99978.81;;;0.29;100.00
24762;BME280;12865;51.934;10.330;2023-03-03T08:44:40;99985.19;;;0.22;100.00
24762;BME280;12865;51.934;10.330;2023-03-03T08:47:26;99975.56;;;0.22;100.00
24762;BME280;12865;51.934;10.330;2023-03-03T08:50:12;99983.16;;;0.07;100.00
24762;BME280;12865;51.934;10.330;2023-03-03T08:52:59;99988.28;;;0.10;100.00
24762;BME280;12865;51.934;10.330;2023-03-03T08:55:45;99984.91;;;0.06;100.00
24762;BME280;12865;51.934;10.330;2023-03-03T08:58:31;99986.50;;;0.10;100.00
24762;BME280;12865;51.934;10.330;2023-03-03T09:01:17;99998.72;;;0.34;100.00
24762;BME280;12865;51.934;10.330;2023-03-03T09:04:03;99998.44;;;0.19;100.00
24762;BME280;12865;51.934;10.330;2023-03-03T09:06:48;99993.41;;;0.36;100.00
24762;BME280;12865;51.934;10.330;2023-03-03T09:09:34;99993.03;;;0.47;100.00
24762;BME280;12865;51.934;10.330;2023-03-03T09:12:28;99996.66;;;0.43;100.00
24762;BME280;12865;51.934;10.330;2023-03-03T09:15:29;99999.34;;;0.41;100.00
24762;BME280;12865;51.934;10.330;2023-03-03T09:18:30;99995.50;;;0.50;100.00
24762;BME280;12865;51.934;10.330;2023-03-03T09:21:25;99991.13;;;0.50;100.00
24762;BME280;12865;51.934;10.330;2023-03-03T09:24:27;99991.94;;;0.52;100.00
24762;BME280;12865;51.934;10.330;2023-03-03T09:27:27;99987.25;;;0.60;100.00
24762;BME280;12865;51.934;10.330;2023-03-03T09:30:33;99983.19;;;0.52;100.00
24762;BME280;12865;51.934;10.330;2023-03-03T09:36:21;99983.72;;;0.61;100.00
24762;BME280;12865;51.934;10.330;2023-03-03T09:39:16;99990.50;;;0.67;100.00
24762;BME280;12865;51.934;10.330;2023-03-03T09:54:37;99989.53;;;0.69;100.00
24762;BME280;12865;51.934;10.330;2023-03-03T10:06:45;99987.63;;;0.95;100.00
24762;BME280;12865;51.934;10.330;2023-03-03T10:18:54;99987.44;;;1.21;100.00
24762;BME280;12865;51.934;10.330;2023-03-03T10:21:49;99988.34;;;1.20;100.00
24762;BME280;12865;51.934;10.330;2023-03-03T10:31:42;99992.81;;;1.40;100.00
24762;BME280;12865;51.934;10.330;2023-03-03T10:33:57;99998.78;;;1.43;100.00
24762;BME280;12865;51.934;10.330;2023-03-03T10:37:23;99988.00;;;1.29;100.00
24762;BME280;12865;51.934;10.330;2023-03-03T10:58:21;99990.22;;;1.18;100.00
24762;BME280;12865;51.934;10.330;2023-03-03T11:01:52;99982.16;;;1.43;100.00
24762;BME280;12865;51.934;10.330;2023-03-03T11:07:57;99982.91;;;1.67;100.00
24762;BME280;12865;51.934;10.330;2023-03-03T11:14:11;99974.03;;;1.49;100.00
24762;BME280;12865;51.934;10.330;2023-03-03T11:20:27;99976.16;;;1.19;100.00
24762;BME280;12865;51.934;10.330;2023-03-03T11:26:33;99978.94;;;1.56;100.00
24762;BME280;12865;51.934;10.330;2023-03-03T11:35:22;99975.03;;;1.46;100.00
24762;BME280;12865;51.934;10.330;2023-03-03T11:41:25;99970.53;;;1.48;100.00
24762;BME280;12865;51.934;10.330;2023-03-03T11:48:00;99979.97;;;1.54;100.00
24762;BME280;12865;51.934;10.330;2023-03-03T11:57:45;99975.09;;;1.65;100.00
24762;BME280;12865;51.934;10.330;2023-03-03T12:00:44;99977.44;;;1.71;100.00
24762;BME280;12865;51.934;10.330;2023-03-03T12:06:52;99959.69;;;1.76;100.00
24762;BME280;12865;51.934;10.330;2023-03-03T12:12:42;99949.41;;;1.72;100.00
24762;BME280;12865;51.934;10.330;2023-03-03T12:21:33;99937.81;;;1.76;100.00
24762;BME280;12865;51.934;10.330;2023-03-03T12:39:39;99913.19;;;1.97;100.00
24762;BME280;12865;51.934;10.330;2023-03-03T12:45:48;99908.97;;;2.13;100.00
24762;BME280;12865;51.934;10.330;2023-03-03T12:48:42;99912.66;;;2.09;100.00
24762;BME280;12865;51.934;10.330;2023-03-03T12:56:57;99917.25;;;2.04;100.00
24762;BME280;12865;51.934;10.330;2023-03-03T12:59:57;99918.91;;;2.07;100.00
24762;BME280;12865;51.934;10.330;2023-03-03T13:02:59;99911.16;;;2.04;100.00
24762;BME280;12865;51.934;10.330;2023-03-03T13:05:59;99920.72;;;1.86;100.00
24762;BME280;12865;51.934;10.330;2023-03-03T13:08:54;99913.78;;;2.04;100.00
24762;BME280;12865;51.934;10.330;2023-03-03T13:12:13;99914.75;;;1.82;100.00
24762;BME280;12865;51.934;10.330;2023-03-03T13:15:34;99913.88;;;2.02;100.00
24762;BME280;12865;51.934;10.330;2023-03-03T13:18:47;99914.72;;;2.03;100.00
24762;BME280;12865;51.934;10.330;2023-03-03T13:21:41;99904.28;;;2.01;100.00
24762;BME280;12865;51.934;10.330;2023-03-03T13:27:32;99907.81;;;1.81;100.00
24762;BME280;12865;51.934;10.330;2023-03-03T13:30:22;99904.78;;;1.70;100.00
24762;BME280;12865;51.934;10.330;2023-03-03T13:33:18;99901.53;;;1.84;100.00
24762;BME280;12865;51.934;10.330;2023-03-03T13:36:10;99910.09;;;1.89;100.00
24762;BME280;12865;51.934;10.330;2023-03-03T13:39:02;99899.41;;;1.92;100.00
24762;BME280;12865;51.934;10.330;2023-03-03T13:41:58;99903.41;;;2.01;100.00
24762;BME280;12865;51.934;10.330;2023-03-03T13:44:48;99898.66;;;2.09;100.00
24762;BME280;12865;51.934;10.330;2023-03-03T13:47:49;99894.38;;;2.25;100.00
24762;BME280;12865;51.934;10.330;2023-03-03T13:50:44;99882.25;;;2.22;100.00
24762;BME280;12865;51.934;10.330;2023-03-03T13:53:33;99880.94;;;2.12;100.00
24762;BME280;12865;51.934;10.330;2023-03-03T13:56:33;99876.41;;;2.16;100.00
24762;BME280;12865;51.934;10.330;2023-03-03T13:59:36;99879.91;;;2.16;100.00
24762;BME280;12865;51.934;10.330;2023-03-03T14:05:29;99873.00;;;2.51;100.00
24762;BME280;12865;51.934;10.330;2023-03-03T14:08:50;99873.00;;;2.51;100.00
24762;BME280;12865;51.934;10.330;2023-03-03T14:11:55;99871.63;;;2.43;100.00
24762;BME280;12865;51.934;10.330;2023-03-03T14:14:58;99859.16;;;2.65;100.00
24762;BME280;12865;51.934;10.330;2023-03-03T14:20:53;99858.69;;;2.74;100.00
24762;BME280;12865;51.934;10.330;2023-03-03T14:23:50;99852.84;;;2.86;100.00
24762;BME280;12865;51.934;10.330;2023-03-03T14:26:53;99845.31;;;2.79;100.00
24762;BME280;12865;51.934;10.330;2023-03-03T14:29:39;99847.66;;;2.85;100.00
24762;BME280;12865;51.934;10.330;2023-03-03T14:32:26;99845.00;;;2.85;100.00
24762;BME280;12865;51.934;10.330;2023-03-03T14:35:20;99842.75;;;2.77;100.00
24762;BME280;12865;51.934;10.330;2023-03-03T14:38:13;99846.00;;;2.82;100.00
24762;BME280;12865;51.934;10.330;2023-03-03T14:41:11;99839.28;;;2.76;100.00
24762;BME280;12865;51.934;10.330;2023-03-03T14:44:00;99837.72;;;2.90;100.00
24762;BME280;12865;51.934;10.330;2023-03-03T14:47:00;99837.41;;;2.96;100.00
24762;BME280;12865;51.934;10.330;2023-03-03T14:49:47;99839.69;;;2.86;100.00
24762;BME280;12865;51.934;10.330;2023-03-03T14:52:33;99837.28;;;2.99;100.00
24762;BME280;12865;51.934;10.330;2023-03-03T14:55:32;99832.41;;;2.91;100.00
24762;BME280;12865;51.934;10.330;2023-03-03T14:58:40;99839.81;;;2.83;100.00
24762;BME280;12865;51.934;10.330;2023-03-03T15:01:36;99832.50;;;2.54;100.00
24762;BME280;12865;51.934;10.330;2023-03-03T15:04:25;99832.16;;;2.79;100.00
24762;BME280;12865;51.934;10.330;2023-03-03T15:07:29;99828.66;;;2.78;100.00
24762;BME280;12865;51.934;10.330;2023-03-03T15:10:33;99830.28;;;2.81;100.00
24762;BME280;12865;51.934;10.330;2023-03-03T15:16:17;99832.78;;;2.84;100.00
24762;BME280;12865;51.934;10.330;2023-03-03T15:19:18;99825.69;;;2.67;100.00
24762;BME280;12865;51.934;10.330;2023-03-03T15:25:36;99822.47;;;2.96;100.00
24762;BME280;12865;51.934;10.330;2023-03-03T15:34:40;99815.97;;;2.86;100.00
24762;BME280;12865;51.934;10.330;2023-03-03T15:37:44;99808.41;;;2.80;100.00
24762;BME280;12865;51.934;10.330;2023-03-03T15:40:39;99812.31;;;2.71;100.00
24762;BME280;12865;51.934;10.330;2023-03-03T15:47:09;99802.66;;;2.72;100.00
24762;BME280;12865;51.934;10.330;2023-03-03T15:50:14;99803.72;;;2.51;100.00
24762;BME280;12865;51.934;10.330;2023-03-03T15:59:17;99798.59;;;2.48;100.00
24762;BME280;12865;51.934;10.330;2023-03-03T16:02:18;99795.84;;;2.32;100.00
24762;BME280;12865;51.934;10.330;2023-03-03T16:05:33;99797.66;;;2.13;100.00
24762;BME280;12865;51.934;10.330;2023-03-03T16:08:35;99802.63;;;2.19;100.00
24762;BME280;12865;51.934;10.330;2023-03-03T16:11:38;99799.44;;;1.93;100.00
24762;BME280;12865;51.934;10.330;2023-03-03T16:23:56;99801.81;;;1.81;100.00
24762;BME280;12865;51.934;10.330;2023-03-03T16:30:25;99797.53;;;1.60;100.00
24762;BME280;12865;51.934;10.330;2023-03-03T16:33:22;99799.28;;;1.59;100.00
24762;BME280;12865;51.934;10.330;2023-03-03T16:42:28;99798.88;;;1.29;100.00
24762;BME280;12865;51.934;10.330;2023-03-03T16:45:19;99796.91;;;1.34;100.00
24762;BME280;12865;51.934;10.330;2023-03-03T16:48:13;99790.41;;;1.23;100.00
24762;BME280;12865;51.934;10.330;2023-03-03T16:51:22;99798.78;;;1.12;100.00
24762;BME280;12865;51.934;10.330;2023-03-03T16:54:37;99804.16;;;1.09;100.00
24762;BME280;12865;51.934;10.330;2023-03-03T16:57:31;99802.22;;;1.12;100.00
24762;BME280;12865;51.934;10.330;2023-03-03T17:00:27;99811.97;;;1.10;100.00
24762;BME280;12865;51.934;10.330;2023-03-03T17:06:15;99809.63;;;1.04;100.00
24762;BME280;12865;51.934;10.330;2023-03-03T17:09:18;99811.56;;;0.99;100.00
24762;BME280;12865;51.934;10.330;2023-03-03T17:21:00;99823.78;;;1.00;100.00
24762;BME280;12865;51.934;10.330;2023-03-03T17:23:53;99838.34;;;0.87;100.00
24762;BME280;12865;51.934;10.330;2023-03-03T17:33:09;99848.28;;;0.79;100.00
24762;BME280;12865;51.934;10.330;2023-03-03T17:45:17;99848.34;;;0.77;100.00
24762;BME280;12865;51.934;10.330;2023-03-03T17:54:21;99844.66;;;0.61;100.00
24762;BME280;12865;51.934;10.330;2023-03-03T18:00:16;99842.22;;;0.57;100.00
24762;BME280;12865;51.934;10.330;2023-03-03T18:03:33;99849.16;;;0.58;100.00
24762;BME280;12865;51.934;10.330;2023-03-03T18:07:29;99839.53;;;0.58;100.00
24762;BME280;12865;51.934;10.330;2023-03-03T18:19:21;99838.06;;;0.51;100.00
24762;BME280;12865;51.934;10.330;2023-03-03T18:22:41;99838.97;;;0.50;100.00
24762;BME280;12865;51.934;10.330;2023-03-03T18:28:48;99831.50;;;0.41;100.00
24762;BME280;12865;51.934;10.330;2023-03-03T18:31:48;99825.09;;;0.48;100.00
24762;BME280;12865;51.934;10.330;2023-03-03T18:34:37;99825.34;;;0.42;100.00
24762;BME280;12865;51.934;10.330;2023-03-03T18:40:31;99835.59;;;0.48;100.00
24762;BME280;12865;51.934;10.330;2023-03-03T18:43:40;99834.34;;;0.57;100.00
24762;BME280;12865;51.934;10.330;2023-03-03T18:49:11;99827.78;;;0.47;100.00
24762;BME280;12865;51.934;10.330;2023-03-03T18:52:17;99828.50;;;0.50;100.00
24762;BME280;12865;51.934;10.330;2023-03-03T19:04:02;99840.34;;;0.38;100.00
24762;BME280;12865;51.934;10.330;2023-03-03T19:07:03;99839.44;;;0.39;100.00
24762;BME280;12865;51.934;10.330;2023-03-03T19:12:47;99835.91;;;0.41;100.00
24762;BME280;12865;51.934;10.330;2023-03-03T19:15:45;99837.28;;;0.49;100.00